Op dit moment wordt er hard gewerkt aan deze versie van Weerstation-Wijk.nl
Het kan zijn dat er dingen nog niet helemaal kloppen of goed werken.

Weerstation-Wijk.nl. Voor het weer van Wijk bij Duurstede en omstreken



Bezoek ook deze websites:

Template documentation
and downloads

And another site



METAR rapporten vliegvelden

   
EHVK - Volkel Rnlafb, Netherlands
Afstand tot: ZW 18 km
Gewijzigd: Oct 6 2022 2:25 am
Helder  
Helder  
   Wind: WZW 18.5 km/h
Wind: WZW 18.5 km/h
Temperatuur: 13°C
Dauwpunt: 10°C
Vochtigheid: 82%
Barometer: 1021 hPa
Bewolking: Helder
Zicht: meer dan 10 km
Bewolking: Helder
EHVK 060025Z AUTO 24010KT 9999 NCD 13/10 Q1021 BLU RMK CB INFO NOT AVBL
EDLV - Niederrhein, Germany
Afstand tot: ZO 25 km
Gewijzigd: Oct 6 2022 2:20 am
Helder  
Helder  
   Wind: WZW 20.4 km/h
Wind: WZW 20.4 km/h
Temperatuur: 14°C
Dauwpunt: 10°C
Vochtigheid: 77%
Barometer: 1021 hPa
Bewolking: Helder
Zicht: meer dan 10 km
Bewolking: Helder
EDLV 060020Z AUTO 25011KT 9999 // NCD 14/10 Q1021
EHDL - Deelen Rnlafb, Netherlands
Afstand tot: N 35 km
Gewijzigd: Oct 6 2022 2:25 am
Gedeeltelijk bewolkt  
Gedeeltelijk bewolkt  
   Wind: ZW 14.8 km/h
Wind: ZW 14.8 km/h
Temperatuur: 12°C
Dauwpunt: 11°C
Vochtigheid: 94%
Barometer: 1020 hPa
Bewolking: Gedeeltelijk bewolkt
Zicht: meer dan 10 km
Bewolking: Licht bewolkt 4400 ft,
Gedeeltelijk bewolkt 5500 ft
EHDL 060025Z AUTO 22008KT 150V270 9999 FEW044 SCT055 12/11 Q1020 BLU
EHEH - Eindhoven Rnlafb, Netherlands
Afstand tot: ZW 48 km
Gewijzigd: Oct 6 2022 2:25 am
Gedeeltelijk bewolkt  
Gedeeltelijk bewolkt  
   Wind: ZW 18.5 km/h
Wind: ZW 18.5 km/h
Temperatuur: 13°C
Dauwpunt: 11°C
Vochtigheid: 88%
Barometer: 1022 hPa
Bewolking: Gedeeltelijk bewolkt
Zicht: meer dan 10 km
Bewolking: Gedeeltelijk bewolkt 3300 ft,
Gedeeltelijk bewolkt 4200 ft
EHEH 060025Z AUTO 23010KT 9999 SCT033 SCT042 13/11 Q1022 BLU
EHGR - Gilze-Rijen Rnla, Netherlands
Afstand tot: WZW 70 km
Gewijzigd: Oct 6 2022 2:25 am
Grotendeels bewolkt  
Grotendeels bewolkt  
   Wind: WZW 11.1 km/h
Wind: WZW 11.1 km/h
Temperatuur: 13°C
Dauwpunt: 9°C
Vochtigheid: 77%
Barometer: 1022 hPa
Bewolking: Grotendeels bewolkt
Zicht: meer dan 10 km
Bewolking: Grotendeels bewolkt 3300 ft
EHGR 060025Z AUTO 24006KT 9999 BKN033 13/09 Q1022 BLU
EBBL - Kleine-Brogel(Ba, Belgium
Afstand tot: ZZW 71 km
Gewijzigd: Oct 6 2022 2:25 am
Licht bewolkt  
Licht bewolkt  
   Wind: Westen 13 km/h
Wind: Westen 13 km/h
Temperatuur: 13°C
Dauwpunt: 11°C
Vochtigheid: 88%
Barometer: 1023 hPa
Bewolking: Licht bewolkt
Zicht: meer dan 10 km
Bewolking: Licht bewolkt 3500 ft
EBBL 060025Z AUTO 26007KT 9999 FEW035/// 13/11 Q1023 BLU

Script ontwikkeld door  Saratoga-weather.org Aangepast voor de template door  Weerstation Leuven

U vindt ons ook hier:

UK Metoffice

WeatherCloud

AWEKAS

Apparatuur in gebruik:

Weerstation
Davis VP2 + EU Wireless

Weerprogramma
Weather Display

Webleverancier
WebReus.nl

Davis VP2 + EU Wireless

Weather Display

WebReus.nl


Weerstation-Wijk.nl. Voor het weer van Wijk bij Duurstede en omstreken